Time;durP1;ratioP1;P1;durP2;ratioP2;P2;SDS_P1;SDS_P2;PMS_P1;PMS_P2;Temp;Humidity;BMP_temperature;BMP_pressure;BME280_temperature;BME280_humidity;BME280_pressure;Samples;Min_cycle;Max_cycle;Signal;HPM_P1;HPM_P2
2021/12/28 00:00:27;;;;;;;14.60;7.00;;;1.60;97.30;;;;;;5058899;28;20426;-84
2021/12/28 00:02:55;;;;;;;21.60;7.53;;;1.60;97.30;;;;;;5058999;28;20445;-85
2021/12/28 00:05:22;;;;;;;21.30;7.13;;;1.60;97.30;;;;;;5058362;28;20462;-84
2021/12/28 00:07:49;;;;;;;16.03;6.90;;;1.60;97.30;;;;;;5059548;28;20410;-84
2021/12/28 00:10:17;;;;;;;18.20;7.73;;;1.60;97.30;;;;;;5056060;28;20463;-85
2021/12/28 00:12:43;;;;;;;16.50;7.80;;;1.60;97.30;;;;;;5056003;28;20405;-84
2021/12/28 00:18:04;;;;;;;13.23;6.10;;;1.60;97.30;;;;;;5050004;28;20414;-85
2021/12/28 00:20:46;;;;;;;15.83;5.87;;;1.60;97.30;;;;;;5056219;28;20832;-85
2021/12/28 00:23:25;;;;;;;12.50;6.03;;;1.60;97.30;;;;;;5054811;28;20417;-85
2021/12/28 00:25:52;;;;;;;17.93;7.13;;;1.60;97.30;;;;;;5055420;28;20921;-85
2021/12/28 00:28:19;;;;;;;13.10;6.20;;;1.60;97.30;;;;;;5055539;28;20417;-84
2021/12/28 00:30:47;;;;;;;16.73;6.40;;;1.60;97.30;;;;;;5055926;28;20480;-84
2021/12/28 00:33:13;;;;;;;12.40;6.07;;;1.60;97.30;;;;;;5055537;28;20452;-85
2021/12/28 00:35:40;;;;;;;12.80;7.00;;;1.60;97.30;;;;;;5055204;28;20994;-85
2021/12/28 00:38:10;;;;;;;14.90;5.80;;;1.60;97.30;;;;;;5053687;28;20406;-85
2021/12/28 00:40:41;;;;;;;11.20;5.70;;;1.60;97.30;;;;;;5048729;28;20453;-83
2021/12/28 00:43:12;;;;;;;17.33;6.73;;;1.60;97.30;;;;;;5070970;28;20425;-83
2021/12/28 00:45:37;;;;;;;13.23;6.40;;;1.60;97.30;;;;;;5059556;28;20492;-83
2021/12/28 00:48:04;;;;;;;15.17;6.60;;;1.60;97.30;;;;;;5056819;28;20457;-83
2021/12/28 00:50:31;;;;;;;17.10;6.60;;;1.60;97.30;;;;;;5053703;28;20194;-84
2021/12/28 00:52:56;;;;;;;14.57;6.10;;;1.60;97.30;;;;;;5047474;28;20500;-83
2021/12/28 00:55:24;;;;;;;12.60;6.50;;;1.60;97.30;;;;;;5047623;28;20446;-83
2021/12/28 00:57:50;;;;;;;12.70;6.40;;;1.60;97.30;;;;;;5043768;28;20186;-83
2021/12/28 01:00:20;;;;;;;13.60;5.70;;;1.70;97.30;;;;;;5047181;28;20971;-84
2021/12/28 01:02:47;;;;;;;16.63;7.40;;;1.70;97.30;;;;;;5046185;28;20968;-84
2021/12/28 01:05:13;;;;;;;16.77;7.00;;;1.70;97.30;;;;;;5048262;28;20419;-83
2021/12/28 01:07:39;;;;;;;16.90;6.87;;;1.70;97.30;;;;;;5045634;28;21010;-84
2021/12/28 01:10:21;;;;;;;11.20;5.20;;;1.70;97.30;;;;;;5051580;28;20516;-83
2021/12/28 01:12:49;;;;;;;14.30;5.80;;;1.70;97.30;;;;;;5051298;28;20200;-81
2021/12/28 01:15:16;;;;;;;13.90;5.70;;;1.70;97.30;;;;;;5043491;28;20490;-82
2021/12/28 01:17:42;;;;;;;11.93;5.60;;;1.80;97.30;;;;;;5057242;28;20413;-81
2021/12/28 01:20:10;;;;;;;12.73;5.73;;;1.80;97.30;;;;;;5053427;28;20459;-80
2021/12/28 01:22:37;;;;;;;15.97;6.30;;;1.80;97.30;;;;;;5057213;28;20180;-81
2021/12/28 01:25:04;;;;;;;13.93;6.40;;;1.80;97.30;;;;;;5059564;28;20417;-80
2021/12/28 01:27:29;;;;;;;16.30;6.37;;;1.80;97.30;;;;;;5062517;28;20521;-81
2021/12/28 01:29:55;;;;;;;14.30;6.77;;;1.90;97.30;;;;;;5058620;28;20497;-80
2021/12/28 01:32:21;;;;;;;13.10;5.57;;;1.90;97.30;;;;;;5058306;28;20223;-81
2021/12/28 01:34:47;;;;;;;10.87;4.93;;;1.90;97.30;;;;;;5054074;28;20210;-79
2021/12/28 01:37:13;;;;;;;11.30;5.63;;;1.90;97.30;;;;;;5057800;28;20454;-79
2021/12/28 01:39:39;;;;;;;13.23;5.30;;;1.90;97.30;;;;;;5055493;28;20442;-79
2021/12/28 01:42:08;;;;;;;14.97;6.17;;;1.90;97.30;;;;;;5052811;28;20200;-80
2021/12/28 01:44:35;;;;;;;8.37;5.20;;;1.90;97.30;;;;;;5058284;28;20494;-78
2021/12/28 01:47:03;;;;;;;12.37;6.10;;;1.90;97.30;;;;;;5060801;28;20479;-79
2021/12/28 01:49:28;;;;;;;11.40;5.20;;;2.00;97.30;;;;;;5053669;28;20426;-79
2021/12/28 01:51:54;;;;;;;8.30;5.07;;;2.00;97.30;;;;;;5061206;28;20462;-78
2021/12/28 01:54:20;;;;;;;9.27;4.77;;;2.00;97.30;;;;;;5059452;28;20183;-79
2021/12/28 01:56:47;;;;;;;9.30;4.90;;;2.00;97.30;;;;;;5050698;28;20426;-79
2021/12/28 01:59:16;;;;;;;8.50;5.00;;;2.00;97.30;;;;;;5052060;28;20433;-80
2021/12/28 02:01:42;;;;;;;14.20;5.73;;;2.00;97.30;;;;;;5043950;28;20441;-80
2021/12/28 02:04:23;;;;;;;10.97;5.43;;;2.10;97.30;;;;;;5045662;28;20502;-80
2021/12/28 02:06:51;;;;;;;8.47;4.97;;;2.10;97.30;;;;;;5059945;28;20556;-80
2021/12/28 02:09:20;;;;;;;10.83;5.50;;;2.10;97.30;;;;;;5056845;28;20429;-80
2021/12/28 02:11:52;;;;;;;9.07;4.97;;;2.10;97.30;;;;;;5039844;28;20467;-82
2021/12/28 02:14:21;;;;;;;10.40;4.30;;;2.10;97.30;;;;;;5039615;28;20430;-83
2021/12/28 02:16:47;;;;;;;8.77;4.57;;;2.10;97.30;;;;;;5039858;28;20434;-83
2021/12/28 02:19:13;;;;;;;9.20;5.00;;;2.10;97.30;;;;;;5043377;28;20448;-83
2021/12/28 02:21:39;;;;;;;7.13;4.63;;;2.10;97.30;;;;;;5041332;28;20208;-82
2021/12/28 02:24:07;;;;;;;12.20;5.60;;;2.10;97.30;;;;;;5042896;28;20458;-83
2021/12/28 02:26:33;;;;;;;11.30;5.40;;;2.10;97.30;;;;;;5041213;28;20832;-82
2021/12/28 02:28:59;;;;;;;8.07;4.13;;;2.10;97.30;;;;;;5049980;28;20422;-82
2021/12/28 02:31:26;;;;;;;10.40;4.77;;;2.10;97.30;;;;;;5065592;28;20504;-82
2021/12/28 02:33:52;;;;;;;14.50;6.23;;;2.10;97.30;;;;;;5083343;28;20428;-83
2021/12/28 02:36:19;;;;;;;9.53;5.00;;;2.10;97.30;;;;;;5049906;28;20421;-84
2021/12/28 02:38:46;;;;;;;10.30;5.30;;;2.10;97.30;;;;;;5044754;28;20235;-84
2021/12/28 02:41:12;;;;;;;11.27;5.23;;;2.10;97.30;;;;;;5063237;28;20445;-84
2021/12/28 02:43:39;;;;;;;12.67;5.00;;;2.10;97.30;;;;;;5064554;28;20432;-84
2021/12/28 02:46:07;;;;;;;9.57;4.93;;;2.10;97.30;;;;;;5079854;28;20417;-84
2021/12/28 02:48:34;;;;;;;11.43;4.63;;;2.10;97.30;;;;;;5065038;28;20429;-83
2021/12/28 02:51:06;;;;;;;13.57;4.80;;;2.10;97.30;;;;;;5082454;28;20499;-83
2021/12/28 02:53:32;;;;;;;13.47;5.27;;;2.10;97.30;;;;;;5063489;28;20409;-83
2021/12/28 02:55:58;;;;;;;6.00;4.03;;;2.20;97.30;;;;;;5063848;28;20432;-83
2021/12/28 02:58:34;;;;;;;10.30;5.13;;;2.20;97.30;;;;;;5064811;28;20203;-83
2021/12/28 03:01:02;;;;;;;7.00;4.27;;;2.20;97.30;;;;;;5062061;28;20441;-83
2021/12/28 03:03:31;;;;;;;9.87;4.60;;;2.20;97.30;;;;;;5062130;28;20421;-83
2021/12/28 03:05:58;;;;;;;9.17;4.83;;;2.20;97.30;;;;;;5061926;28;20456;-83
2021/12/28 03:08:27;;;;;;;10.97;5.40;;;2.20;97.30;;;;;;5080871;28;20417;-83
2021/12/28 03:10:54;;;;;;;7.73;4.17;;;2.20;97.30;;;;;;5060613;28;20457;-83
2021/12/28 03:13:29;;;;;;;10.00;4.43;;;2.30;97.30;;;;;;5061719;28;20436;-84
2021/12/28 03:15:55;;;;;;;8.57;4.70;;;2.30;97.30;;;;;;5061646;28;20413;-83
2021/12/28 03:18:22;;;;;;;7.67;4.50;;;2.20;97.30;;;;;;5064014;28;20425;-83
2021/12/28 03:20:47;;;;;;;9.53;4.70;;;2.20;97.30;;;;;;5063655;28;20445;-82
2021/12/28 03:23:18;;;;;;;10.83;4.80;;;2.20;97.30;;;;;;5064255;28;20425;-83
2021/12/28 03:25:45;;;;;;;8.53;4.30;;;2.20;97.30;;;;;;5063924;28;20417;-83
2021/12/28 03:28:23;;;;;;;8.60;4.60;;;2.20;97.30;;;;;;5064820;28;20421;-82
2021/12/28 03:30:49;;;;;;;10.67;4.50;;;2.20;97.30;;;;;;5044029;28;20987;-83
2021/12/28 03:33:15;;;;;;;8.80;3.97;;;2.20;97.30;;;;;;5044627;28;21046;-83
2021/12/28 03:35:41;;;;;;;6.50;3.70;;;2.20;97.30;;;;;;5060517;28;20465;-83
2021/12/28 03:38:07;;;;;;;12.90;4.70;;;2.30;97.30;;;;;;5064112;28;20438;-82
2021/12/28 03:40:33;;;;;;;11.40;4.73;;;2.30;97.30;;;;;;5059179;28;20734;-83
2021/12/28 03:42:59;;;;;;;9.27;4.10;;;2.30;97.30;;;;;;5046789;28;20187;-84
2021/12/28 03:45:25;;;;;;;9.00;4.80;;;2.40;97.30;;;;;;5050875;28;20927;-82
2021/12/28 03:47:51;;;;;;;11.03;4.20;;;2.30;97.30;;;;;;5041647;28;20421;-83
2021/12/28 03:50:19;;;;;;;8.90;4.80;;;2.30;97.30;;;;;;5050276;28;20214;-83
2021/12/28 03:52:46;;;;;;;11.83;4.80;;;2.30;97.30;;;;;;5064393;28;20479;-82
2021/12/28 03:55:12;;;;;;;8.60;4.27;;;2.30;97.30;;;;;;5066069;28;20937;-82
2021/12/28 03:57:39;;;;;;;8.17;4.10;;;2.30;97.30;;;;;;5064419;28;20421;-82
2021/12/28 04:00:10;;;;;;;6.70;4.23;;;2.30;97.30;;;;;;5064594;28;20211;-82
2021/12/28 04:02:35;;;;;;;8.60;4.50;;;2.30;97.30;;;;;;5063736;28;20422;-85
2021/12/28 04:05:01;;;;;;;6.57;3.60;;;2.30;97.30;;;;;;5062927;28;20416;-83
2021/12/28 04:07:26;;;;;;;12.70;4.63;;;2.40;97.30;;;;;;5062450;28;20198;-83
2021/12/28 04:12:19;;;;;;;9.50;4.67;;;2.40;97.30;;;;;;5059078;28;20218;-83
2021/12/28 04:14:45;;;;;;;7.70;4.40;;;2.40;97.30;;;;;;5039925;28;20179;-83
2021/12/28 04:17:11;;;;;;;9.93;5.10;;;2.40;97.30;;;;;;5040491;28;20422;-83
2021/12/28 04:19:37;;;;;;;7.90;4.40;;;2.40;97.30;;;;;;5040661;28;20414;-83
2021/12/28 04:22:03;;;;;;;11.87;4.30;;;2.40;97.30;;;;;;5040481;28;20267;-83
2021/12/28 04:24:29;;;;;;;12.87;5.67;;;2.40;97.30;;;;;;5039662;28;20176;-83
2021/12/28 04:26:55;;;;;;;11.70;5.60;;;2.50;97.30;;;;;;5040203;28;20421;-83
2021/12/28 04:29:20;;;;;;;9.63;4.57;;;2.50;97.30;;;;;;5041028;28;20453;-80
2021/12/28 04:31:46;;;;;;;9.07;4.90;;;2.50;97.30;;;;;;5079978;28;20231;-80
2021/12/28 04:34:11;;;;;;;8.20;4.37;;;2.50;97.30;;;;;;5060848;28;20187;-80
2021/12/28 04:36:37;;;;;;;11.47;4.67;;;2.50;97.30;;;;;;5047723;28;20167;-80
2021/12/28 04:39:05;;;;;;;7.50;3.70;;;2.50;97.30;;;;;;5062332;28;20205;-80
2021/12/28 04:41:31;;;;;;;9.53;4.30;;;2.50;97.30;;;;;;5043337;28;20298;-80
2021/12/28 04:43:59;;;;;;;10.63;4.97;;;2.50;97.30;;;;;;5045471;28;20426;-79
2021/12/28 04:46:25;;;;;;;8.40;4.67;;;2.50;97.30;;;;;;5053033;28;20938;-80
2021/12/28 04:48:51;;;;;;;8.67;4.80;;;2.50;97.30;;;;;;5062125;28;20429;-80
2021/12/28 04:51:16;;;;;;;7.87;4.70;;;2.50;97.30;;;;;;5061937;28;20742;-80
2021/12/28 04:53:42;;;;;;;8.10;4.53;;;2.50;97.30;;;;;;5059530;28;20213;-77
2021/12/28 04:56:08;;;;;;;10.10;4.90;;;2.50;97.30;;;;;;5059112;28;20183;-78
2021/12/28 04:58:34;;;;;;;8.80;4.03;;;2.50;97.30;;;;;;5059850;28;20199;-78
2021/12/28 05:00:59;;;;;;;8.00;4.13;;;2.60;97.30;;;;;;5052967;28;20226;-80
2021/12/28 05:03:25;;;;;;;10.57;4.50;;;2.60;97.30;;;;;;5040415;28;20488;-80
2021/12/28 05:05:52;;;;;;;7.70;4.43;;;2.60;97.30;;;;;;5056262;28;20560;-80
2021/12/28 05:08:20;;;;;;;17.63;4.03;;;2.60;97.30;;;;;;5046057;28;20635;-79
2021/12/28 05:10:46;;;;;;;11.00;4.20;;;2.60;97.30;;;;;;5053295;28;20492;-77
2021/12/28 05:13:12;;;;;;;9.43;4.90;;;2.60;97.30;;;;;;5060842;28;20416;-79
2021/12/28 05:15:38;;;;;;;12.47;4.80;;;2.60;97.30;;;;;;5048955;28;21027;-79
2021/12/28 05:18:05;;;;;;;14.97;5.00;;;2.60;97.30;;;;;;5055674;28;20461;-79
2021/12/28 05:20:31;;;;;;;13.27;6.30;;;2.60;97.30;;;;;;5070942;28;20453;-79
2021/12/28 05:22:57;;;;;;;11.70;5.10;;;2.60;97.30;;;;;;5040688;28;20406;-78
2021/12/28 05:25:22;;;;;;;13.93;5.50;;;2.70;97.30;;;;;;5058250;28;20418;-79
2021/12/28 05:27:48;;;;;;;13.07;4.57;;;2.70;97.30;;;;;;5058162;28;20658;-79
2021/12/28 05:30:14;;;;;;;11.40;4.97;;;2.70;97.30;;;;;;5060746;28;20243;-79
2021/12/28 05:32:40;;;;;;;8.00;4.43;;;2.70;97.30;;;;;;5049964;28;20238;-80
2021/12/28 05:35:07;;;;;;;12.90;4.80;;;2.70;97.30;;;;;;5040841;28;20422;-80
2021/12/28 05:37:33;;;;;;;12.73;5.07;;;2.70;97.30;;;;;;5048087;28;20203;-79
2021/12/28 05:39:59;;;;;;;10.50;4.90;;;2.70;97.30;;;;;;5059865;28;20418;-79
2021/12/28 05:42:25;;;;;;;10.80;5.00;;;2.80;97.30;;;;;;5060056;28;20435;-79
2021/12/28 05:44:51;;;;;;;13.67;5.50;;;2.80;97.30;;;;;;5078078;28;20771;-79
2021/12/28 05:47:17;;;;;;;14.83;5.20;;;2.80;97.30;;;;;;5060024;28;20432;-83
2021/12/28 05:49:43;;;;;;;10.43;5.83;;;2.80;97.30;;;;;;5058099;28;20171;-84
2021/12/28 05:52:08;;;;;;;14.40;5.90;;;2.80;97.30;;;;;;5054897;28;20199;-85
2021/12/28 05:54:34;;;;;;;13.00;4.80;;;2.80;97.30;;;;;;5047562;28;20414;-84
2021/12/28 05:57:01;;;;;;;15.70;5.90;;;2.80;97.30;;;;;;5053684;28;20667;-85
2021/12/28 05:59:26;;;;;;;10.33;5.00;;;2.90;97.30;;;;;;5048710;28;20446;-85
2021/12/28 06:01:53;;;;;;;12.50;5.43;;;2.90;97.30;;;;;;5048485;28;21108;-84
2021/12/28 06:04:20;;;;;;;14.50;6.10;;;2.90;97.30;;;;;;5059264;28;20171;-86
2021/12/28 06:06:45;;;;;;;12.37;5.57;;;2.90;97.30;;;;;;5049981;28;20425;-85
2021/12/28 06:09:11;;;;;;;14.50;6.10;;;2.90;97.30;;;;;;5040498;28;20932;-84
2021/12/28 06:11:36;;;;;;;16.37;5.83;;;3.00;97.30;;;;;;5055016;28;20199;-85
2021/12/28 06:14:02;;;;;;;12.67;5.50;;;2.90;97.30;;;;;;5047553;28;20705;-84
2021/12/28 06:16:29;;;;;;;14.27;5.90;;;3.00;97.30;;;;;;5039323;28;20176;-84
2021/12/28 06:18:54;;;;;;;15.73;6.17;;;3.00;97.30;;;;;;5075320;28;20171;-84
2021/12/28 06:21:20;;;;;;;14.00;6.23;;;3.00;97.30;;;;;;5049628;28;20444;-85
2021/12/28 06:23:46;;;;;;;18.37;7.60;;;3.00;97.30;;;;;;5055248;28;20209;-79
2021/12/28 06:26:11;;;;;;;15.97;6.40;;;3.00;97.30;;;;;;5063344;28;20204;-80
2021/12/28 06:28:37;;;;;;;19.33;6.67;;;3.00;97.30;;;;;;5065202;28;20175;-80
2021/12/28 06:31:03;;;;;;;19.53;7.20;;;3.00;97.30;;;;;;5065653;28;20728;-80
2021/12/28 06:33:28;;;;;;;20.40;7.87;;;3.10;97.30;;;;;;5051599;28;20547;-81
2021/12/28 06:35:54;;;;;;;19.13;6.47;;;3.10;97.30;;;;;;5066498;28;20176;-80
2021/12/28 06:38:21;;;;;;;13.27;5.73;;;3.10;97.30;;;;;;5060232;28;20205;-80
2021/12/28 06:40:47;;;;;;;21.47;7.20;;;3.10;97.30;;;;;;5059185;28;20199;-81
2021/12/28 06:43:13;;;;;;;13.07;7.00;;;3.10;97.30;;;;;;5050845;28;20474;-80
2021/12/28 06:45:39;;;;;;;14.20;6.57;;;3.20;97.30;;;;;;5058334;28;20803;-80
2021/12/28 06:48:05;;;;;;;18.23;7.70;;;3.20;97.30;;;;;;5051717;28;20666;-80
2021/12/28 06:50:31;;;;;;;16.93;7.13;;;3.20;97.30;;;;;;5067111;28;20499;-80
2021/12/28 06:52:56;;;;;;;17.83;7.00;;;3.20;97.30;;;;;;5066533;28;20426;-80
2021/12/28 06:55:22;;;;;;;15.70;6.87;;;3.20;97.30;;;;;;5084706;28;20236;-80
2021/12/28 06:57:48;;;;;;;17.77;7.00;;;3.20;97.30;;;;;;5065029;28;20457;-81
2021/12/28 07:00:17;;;;;;;17.47;7.20;;;3.20;97.30;;;;;;5076471;28;20204;-80
2021/12/28 07:02:43;;;;;;;17.13;6.70;;;3.20;97.30;;;;;;5057600;28;20171;-81
2021/12/28 07:05:10;;;;;;;13.03;7.77;;;3.20;97.30;;;;;;5057830;28;20453;-81
2021/12/28 07:07:36;;;;;;;18.40;7.20;;;3.10;97.30;;;;;;5066286;28;20413;-81
2021/12/28 07:10:03;;;;;;;14.90;7.23;;;3.10;97.30;;;;;;5066249;28;20973;-80
2021/12/28 07:12:29;;;;;;;14.27;6.60;;;3.10;97.30;;;;;;5057430;28;20301;-79
2021/12/28 07:14:54;;;;;;;16.63;7.63;;;3.10;97.30;;;;;;5059805;28;20414;-80
2021/12/28 07:17:20;;;;;;;18.87;6.23;;;3.10;97.30;;;;;;5064364;28;20179;-81
2021/12/28 07:19:46;;;;;;;12.00;6.50;;;3.20;97.30;;;;;;5063518;28;20218;-80
2021/12/28 07:22:12;;;;;;;17.70;7.40;;;3.40;97.30;;;;;;5055675;28;20199;-81
2021/12/28 07:24:38;;;;;;;17.20;7.50;;;3.40;97.30;;;;;;5060389;28;20183;-81
2021/12/28 07:27:04;;;;;;;15.70;6.97;;;3.40;97.30;;;;;;5052674;28;20418;-80
2021/12/28 07:29:30;;;;;;;16.73;6.93;;;3.40;97.30;;;;;;5051597;28;20172;-80
2021/12/28 07:31:56;;;;;;;15.20;6.93;;;3.40;97.30;;;;;;5044209;28;20505;-80
2021/12/28 07:34:21;;;;;;;11.47;6.23;;;3.40;97.30;;;;;;5056419;28;20411;-79
2021/12/28 07:36:47;;;;;;;14.03;7.23;;;3.40;97.30;;;;;;5077026;28;20184;-80
2021/12/28 07:39:13;;;;;;;16.30;6.27;;;3.40;97.30;;;;;;5045389;28;20691;-80
2021/12/28 07:41:39;;;;;;;14.10;6.67;;;3.40;97.30;;;;;;5048611;28;20446;-80
2021/12/28 07:44:05;;;;;;;16.40;7.20;;;3.40;97.30;;;;;;5043665;28;20194;-80
2021/12/28 07:46:33;;;;;;;13.03;5.73;;;3.50;97.30;;;;;;5060177;28;20579;-80
2021/12/28 07:48:59;;;;;;;16.70;7.10;;;3.50;97.30;;;;;;5050256;28;20469;-81
2021/12/28 07:51:25;;;;;;;15.37;6.50;;;3.50;97.30;;;;;;5053138;28;20666;-81
2021/12/28 07:53:50;;;;;;;12.27;5.53;;;3.60;97.30;;;;;;5040948;28;20652;-79
2021/12/28 08:47:27;;;;;;;16.93;6.70;;;3.90;97.30;;;;;;5086222;28;20502;-85
2021/12/28 08:49:57;;;;;;;15.80;6.73;;;3.90;97.30;;;;;;5064255;28;20409;-87
2021/12/28 08:52:23;;;;;;;15.93;7.50;;;3.90;97.30;;;;;;5056695;28;20882;-87
2021/12/28 08:54:49;;;;;;;17.63;6.30;;;3.90;97.30;;;;;;5055557;28;20815;-87
2021/12/28 08:57:15;;;;;;;10.30;5.63;;;3.90;97.30;;;;;;5065994;28;20431;-87
2021/12/28 08:59:41;;;;;;;12.47;6.60;;;3.90;97.30;;;;;;5052869;28;20187;-85
2021/12/28 09:02:08;;;;;;;12.40;6.03;;;3.90;97.30;;;;;;5053285;28;20196;-87
2021/12/28 09:04:36;;;;;;;13.73;5.80;;;3.90;97.30;;;;;;5051879;28;20494;-86
2021/12/28 09:07:02;;;;;;;10.57;5.93;;;4.00;97.30;;;;;;5041615;28;20414;-87
2021/12/28 09:09:27;;;;;;;14.93;6.80;;;4.00;97.30;;;;;;5048224;28;20432;-86
2021/12/28 09:11:53;;;;;;;14.60;5.63;;;4.00;97.30;;;;;;5052907;28;20823;-86
2021/12/28 09:14:18;;;;;;;12.23;6.47;;;4.10;97.30;;;;;;5043864;28;20183;-86
2021/12/28 09:16:44;;;;;;;15.90;6.10;;;4.10;97.30;;;;;;5054169;28;20242;-87
2021/12/28 09:19:10;;;;;;;15.80;5.90;;;4.10;97.30;;;;;;5056824;28;20182;-87
2021/12/28 09:21:36;;;;;;;14.73;6.13;;;4.20;97.30;;;;;;5052758;28;20248;-87
2021/12/28 09:24:02;;;;;;;13.50;5.60;;;4.20;97.30;;;;;;5059553;28;20421;-87
2021/12/28 09:26:28;;;;;;;10.80;5.03;;;4.30;97.30;;;;;;5070085;28;20183;-87
2021/12/28 09:28:54;;;;;;;14.93;6.50;;;4.30;97.30;;;;;;5061449;28;20493;-86
2021/12/28 09:31:21;;;;;;;12.73;5.33;;;4.40;97.30;;;;;;5071733;28;20199;-86
2021/12/28 09:33:47;;;;;;;9.53;5.07;;;4.50;97.30;;;;;;5058020;28;20228;-87
2021/12/28 09:36:14;;;;;;;17.70;6.33;;;4.50;97.30;;;;;;5057956;28;21014;-87
2021/12/28 09:38:41;;;;;;;10.23;5.13;;;4.50;97.30;;;;;;5069208;28;20176;-86
2021/12/28 09:41:07;;;;;;;13.03;5.70;;;4.50;97.30;;;;;;5055349;28;20450;-86
2021/12/28 09:43:32;;;;;;;12.00;4.37;;;4.50;97.30;;;;;;5048166;28;20799;-87
2021/12/28 09:45:59;;;;;;;15.37;5.17;;;4.60;97.30;;;;;;5056609;28;20238;-88
2021/12/28 09:48:24;;;;;;;12.20;5.27;;;4.70;97.30;;;;;;5045968;28;20212;-87
2021/12/28 09:50:50;;;;;;;25.77;5.13;;;4.70;97.30;;;;;;5063119;28;20452;-87
2021/12/28 09:53:16;;;;;;;10.77;4.93;;;4.70;97.30;;;;;;5072477;28;20519;-88
2021/12/28 09:55:42;;;;;;;9.90;4.77;;;4.80;97.30;;;;;;5060741;28;20591;-85
2021/12/28 09:58:07;;;;;;;9.00;4.00;;;4.90;97.30;;;;;;5078537;28;20237;-86
2021/12/28 10:00:33;;;;;;;11.27;4.93;;;4.90;97.30;;;;;;5042223;28;20204;-87
2021/12/28 10:02:59;;;;;;;9.67;4.23;;;4.90;97.30;;;;;;5049790;28;20430;-86
2021/12/28 10:05:26;;;;;;;10.03;4.03;;;5.00;97.30;;;;;;5046991;28;20205;-86
2021/12/28 10:07:56;;;;;;;16.57;3.80;;;5.10;97.30;;;;;;5056965;28;20183;-86
2021/12/28 10:10:24;;;;;;;8.67;4.27;;;5.10;97.30;;;;;;5062562;28;20945;-87
2021/12/28 10:12:54;;;;;;;13.80;5.00;;;5.20;97.30;;;;;;5052455;28;20511;-86
2021/12/28 10:15:23;;;;;;;8.97;3.87;;;5.40;97.30;;;;;;5051842;28;20409;-86
2021/12/28 10:17:51;;;;;;;8.60;4.07;;;5.50;97.30;;;;;;5048856;28;20481;-87
2021/12/28 10:20:22;;;;;;;19.73;5.13;;;5.60;97.30;;;;;;5053093;28;20449;-87
2021/12/28 10:22:53;;;;;;;8.27;4.23;;;5.70;97.30;;;;;;5042355;28;20434;-86
2021/12/28 10:25:31;;;;;;;8.90;4.17;;;6.00;97.30;;;;;;5055902;28;20409;-87
2021/12/28 10:28:00;;;;;;;10.83;4.87;;;6.30;97.30;;;;;;5051153;28;20421;-86
2021/12/28 10:30:40;;;;;;;11.43;5.40;;;6.50;97.30;;;;;;5075112;28;20466;-87
2021/12/28 10:33:08;;;;;;;12.70;4.13;;;6.80;97.30;;;;;;5042907;28;20524;-86
2021/12/28 10:35:42;;;;;;;6.57;3.40;;;6.80;97.30;;;;;;5056661;28;20432;-87
2021/12/28 10:38:11;;;;;;;8.83;3.60;;;6.60;97.30;;;;;;5072936;28;20417;-87
2021/12/28 10:40:44;;;;;;;7.63;3.93;;;6.60;97.30;;;;;;5043506;28;20983;-87
2021/12/28 10:43:13;;;;;;;10.43;3.43;;;6.50;97.30;;;;;;5046285;28;20421;-86
2021/12/28 10:45:44;;;;;;;11.77;3.87;;;6.40;97.30;;;;;;5071254;28;20552;-87
2021/12/28 10:48:17;;;;;;;12.03;3.87;;;6.40;97.30;;;;;;5061667;28;20429;-86
2021/12/28 10:51:04;;;;;;;14.23;4.10;;;6.40;97.30;;;;;;5060166;28;20968;-89
2021/12/28 10:53:38;;;;;;;7.37;3.80;;;6.40;97.30;;;;;;5042681;28;20444;-87
2021/12/28 10:56:06;;;;;;;6.23;3.40;;;6.40;97.30;;;;;;5054098;28;20421;-86
2021/12/28 10:58:42;;;;;;;8.47;4.50;;;6.40;97.30;;;;;;5063718;28;20421;-88
2021/12/28 11:01:20;;;;;;;11.70;4.37;;;6.40;97.30;;;;;;5049168;28;20713;-87
2021/12/28 11:03:53;;;;;;;9.03;3.57;;;6.40;97.30;;;;;;5039794;28;20433;-87
2021/12/28 11:06:23;;;;;;;10.30;4.43;;;6.40;97.30;;;;;;5058110;28;20414;-87
2021/12/28 11:08:52;;;;;;;13.50;3.67;;;6.40;97.30;;;;;;5045971;28;20429;-87
2021/12/28 11:11:22;;;;;;;8.43;3.60;;;6.40;97.30;;;;;;5059590;28;20457;-86
2021/12/28 11:14:02;;;;;;;8.80;4.10;;;6.40;97.30;;;;;;5058994;28;20428;-86
2021/12/28 11:16:31;;;;;;;10.30;3.70;;;6.40;97.30;;;;;;5074326;28;20788;-85
2021/12/28 11:19:32;;;;;;;8.00;3.80;;;6.40;97.30;;;;;;5073856;28;20910;-86
2021/12/28 11:22:11;;;;;;;10.90;3.40;;;6.40;97.30;;;;;;5024570;28;20451;-85
2021/12/28 11:24:43;;;;;;;7.43;3.70;;;6.40;97.30;;;;;;5041723;28;20406;-85
2021/12/28 11:27:11;;;;;;;12.03;4.20;;;6.50;97.30;;;;;;5043779;28;20410;-87
2021/12/28 11:30:24;;;;;;;7.83;3.90;;;6.50;97.30;;;;;;5050004;28;20521;-85
2021/12/28 11:33:12;;;;;;;8.17;3.47;;;6.50;97.30;;;;;;5052964;28;20473;-86
2021/12/28 11:36:33;;;;;;;10.03;4.73;;;6.50;97.30;;;;;;5044915;28;20434;-86
2021/12/28 11:39:11;;;;;;;13.03;3.90;;;6.50;97.30;;;;;;5049213;28;20436;-87
2021/12/28 11:41:53;;;;;;;9.20;3.10;;;6.70;97.30;;;;;;5054208;28;20441;-87
2021/12/28 11:44:52;;;;;;;8.90;4.20;;;6.90;97.30;;;;;;5045658;28;20427;-86
2021/12/28 11:47:22;;;;;;;10.13;4.13;;;7.20;97.30;;;;;;5047284;28;20472;-87
2021/12/28 11:50:13;;;;;;;9.43;3.07;;;7.50;97.30;;;;;;5043178;28;20429;-86
2021/12/28 11:52:42;;;;;;;8.50;3.67;;;7.70;97.30;;;;;;5046255;28;20458;-86
2021/12/28 11:55:10;;;;;;;6.60;3.33;;;7.90;97.30;;;;;;5050196;28;20532;-86
2021/12/28 11:57:36;;;;;;;5.43;3.10;;;7.90;97.30;;;;;;5043857;28;20436;-86
2021/12/28 12:00:08;;;;;;;5.73;2.77;;;7.90;97.30;;;;;;5053531;28;21066;-88
2021/12/28 12:02:41;;;;;;;8.60;3.40;;;7.80;97.30;;;;;;5051527;28;20461;-86
2021/12/28 12:05:18;;;;;;;14.73;6.90;;;7.70;97.30;;;;;;5053600;28;20429;-86
2021/12/28 12:07:44;;;;;;;14.37;3.90;;;7.60;97.30;;;;;;5044570;28;20502;-86
2021/12/28 12:10:21;;;;;;;7.50;3.17;;;7.50;97.30;;;;;;5035519;28;20921;-87
2021/12/28 12:12:50;;;;;;;8.83;3.50;;;7.60;97.30;;;;;;5035210;28;20462;-87
2021/12/28 12:15:17;;;;;;;14.07;3.80;;;7.60;97.30;;;;;;5055286;28;20419;-86
2021/12/28 12:17:44;;;;;;;6.40;3.47;;;7.50;97.30;;;;;;5051580;28;20685;-87
2021/12/28 12:20:22;;;;;;;9.00;3.10;;;7.50;97.30;;;;;;5053674;28;20425;-86
2021/12/28 12:23:05;;;;;;;5.33;3.27;;;7.50;97.30;;;;;;5043029;28;20511;-86
2021/12/28 12:25:43;;;;;;;7.37;3.00;;;7.40;97.30;;;;;;5049566;28;20434;-86
2021/12/28 12:28:12;;;;;;;7.33;3.77;;;7.40;97.30;;;;;;5084758;23;20488;-86
2021/12/28 12:30:45;;;;;;;5.07;2.40;;;7.30;97.30;;;;;;5089459;28;20551;-86
2021/12/28 12:33:14;;;;;;;4.70;3.40;;;7.30;97.30;;;;;;5077652;28;20818;-87
2021/12/28 12:35:51;;;;;;;6.80;3.17;;;7.20;97.30;;;;;;5092738;28;20427;-88
2021/12/28 12:38:17;;;;;;;10.83;4.50;;;7.20;97.30;;;;;;5077964;28;20448;-87
2021/12/28 12:40:54;;;;;;;7.73;3.10;;;7.10;97.30;;;;;;5069007;28;20425;-88
2021/12/28 12:43:21;;;;;;;5.87;2.80;;;7.10;97.30;;;;;;5070420;28;20431;-88
2021/12/28 12:45:54;;;;;;;7.07;3.00;;;7.10;97.30;;;;;;5063042;28;20433;-87
2021/12/28 12:48:52;;;;;;;5.20;3.20;;;7.10;97.30;;;;;;5061778;28;20440;-89
2021/12/28 12:51:21;;;;;;;6.30;2.57;;;7.10;97.30;;;;;;5038880;28;20507;-87
2021/12/28 12:53:47;;;;;;;8.17;2.93;;;7.20;97.30;;;;;;5060237;28;20476;-88
2021/12/28 12:56:19;;;;;;;5.57;3.10;;;7.20;97.30;;;;;;5063139;28;20875;-88
2021/12/28 12:58:46;;;;;;;5.73;3.43;;;7.30;97.30;;;;;;5061677;28;20538;-88
2021/12/28 13:01:38;;;;;;;9.40;3.00;;;7.40;97.30;;;;;;5069895;28;20429;-88
2021/12/28 13:04:26;;;;;;;8.43;3.20;;;7.50;97.30;;;;;;5066234;28;20433;-87
2021/12/28 13:07:08;;;;;;;5.03;2.90;;;7.60;97.30;;;;;;5070709;28;20441;-88
2021/12/28 13:09:41;;;;;;;7.17;3.20;;;7.70;97.30;;;;;;5059087;28;20527;-88
2021/12/28 13:12:12;;;;;;;7.63;3.00;;;7.80;97.30;;;;;;5057175;28;20819;-83
2021/12/28 13:14:39;;;;;;;9.70;2.77;;;7.90;97.30;;;;;;5063557;28;20422;-88
2021/12/28 13:17:07;;;;;;;3.53;2.17;;;8.10;97.30;;;;;;5059142;28;20456;-87
2021/12/28 13:19:38;;;;;;;8.43;2.93;;;8.20;97.30;;;;;;5059143;28;20458;-83
2021/12/28 13:22:08;;;;;;;4.87;2.40;;;8.20;97.30;;;;;;5059665;28;20475;-87
2021/12/28 13:24:42;;;;;;;9.83;2.67;;;8.10;97.30;;;;;;5061742;28;20422;-88
2021/12/28 13:27:10;;;;;;;4.40;2.40;;;8.10;97.30;;;;;;5061435;28;20467;-88
2021/12/28 13:29:39;;;;;;;6.57;2.40;;;8.00;97.30;;;;;;5032604;28;20803;-92
2021/12/28 13:32:26;;;;;;;3.90;2.23;;;8.00;97.30;;;;;;5035328;28;20459;-86
2021/12/28 13:35:12;;;;;;;4.73;2.10;;;7.90;97.30;;;;;;5037398;28;20418;-88
2021/12/28 13:37:43;;;;;;;5.23;2.13;;;7.90;97.30;;;;;;5045084;28;20442;-88
2021/12/28 13:40:17;;;;;;;3.20;1.90;;;7.80;97.30;;;;;;5034875;28;20423;-88
2021/12/28 13:43:07;;;;;;;3.70;2.20;;;7.80;97.30;;;;;;5032782;28;20415;-88
2021/12/28 13:45:42;;;;;;;4.20;2.40;;;7.70;97.30;;;;;;5036645;28;20959;-88
2021/12/28 13:48:19;;;;;;;3.47;2.37;;;7.70;97.30;;;;;;5062182;28;20998;-85
2021/12/28 13:51:04;;;;;;;4.60;2.60;;;7.60;97.30;;;;;;5038464;28;20422;-86
2021/12/28 13:53:41;;;;;;;4.87;2.30;;;7.60;97.30;;;;;;5034262;28;20536;-87
2021/12/28 13:56:13;;;;;;;4.00;2.10;;;7.50;97.30;;;;;;5045259;28;20441;-88